Earlton, Kansas
Current Conditions -  °F | °C
As of 9:52 AM on Saturday 25 Oct 2014 (Local Time) from KCNU Reporting Station
Haze Haze  
Wind Chill: 63°   Ceiling: Unl
Heat Index: 63°   Visibility: 5mi
Dew Point: 63°   Wind: 3mph
Humidity: 100%   Direction: 190°S
Pressure: 30.09"   Gusts: NA
Location:  37.6378°N, 95.4622°W
Report Text: KCNU 251452Z AUTO 19003KT 5SM BR CLR 17/17 A3009 RMK AO2 SLP184 T01720172 53014
Loading
Personal Weather Stations






























Interactive Weather Map
Tropical Storm Tracking
New forecast layout! Learn more

10-Day Weather Forecast

Advertisements
Track Severe Weather on mobile